Terminal Aerodrome Forecast
Issued by NWS Boston, MA

Home | Current Version | Previous Version | Text Only | Print | Product List | Glossary On
Versions: 1 2 3 4 5 6 7 8 9 10 11 12 13 14 15 16 17 18 19 20 21 22 23
000
FTUS41 KBOX 271500 AAA
TAFPVD
TAF AMD
KPVD 271500Z 2715/2812 05005KT P6SM SCT250
     FM272100 13006KT P6SM FEW250
     FM280300 14004KT P6SM FEW050
     FM281100 VRB03KT P6SM FEW250=

USA.gov is the U.S. government's official web portal to all federal, state and local government web resources and services.